sensor_id;sensor_type;location;lat;lon;timestamp;pressure;altitude;pressure_sealevel;temperature;humidity
71697;BME280;68167;59.120;37.898;2024-02-26T00:01:02;100679.88;;;0.59;86.44
71697;BME280;68167;59.120;37.898;2024-02-26T00:03:28;100720.22;;;0.81;86.71
71697;BME280;68167;59.120;37.898;2024-02-26T00:05:54;100701.22;;;0.79;86.84
71697;BME280;68167;59.120;37.898;2024-02-26T00:08:21;100716.13;;;0.79;86.96
71697;BME280;68167;59.120;37.898;2024-02-26T00:10:48;100642.31;;;0.36;86.74
71697;BME280;68167;59.120;37.898;2024-02-26T00:13:15;100702.88;;;0.72;86.61
71697;BME280;68167;59.120;37.898;2024-02-26T00:15:41;100692.00;;;0.60;85.96
71697;BME280;68167;59.120;37.898;2024-02-26T00:18:07;100613.91;;;0.09;86.30
71697;BME280;68167;59.120;37.898;2024-02-26T00:20:33;100616.84;;;0.14;86.45
71697;BME280;68167;59.120;37.898;2024-02-26T00:23:00;100566.59;;;-0.21;86.39
71697;BME280;68167;59.120;37.898;2024-02-26T00:25:26;100686.78;;;0.52;86.70
71697;BME280;68167;59.120;37.898;2024-02-26T00:27:52;100682.69;;;0.50;86.65
71697;BME280;68167;59.120;37.898;2024-02-26T00:30:18;100611.88;;;-0.12;86.67
71697;BME280;68167;59.120;37.898;2024-02-26T00:32:44;100681.09;;;0.32;86.48
71697;BME280;68167;59.120;37.898;2024-02-26T00:35:11;100678.00;;;0.29;86.50
71697;BME280;68167;59.120;37.898;2024-02-26T00:37:37;100707.44;;;0.39;87.03
71697;BME280;68167;59.120;37.898;2024-02-26T00:40:04;100645.00;;;0.04;86.41
71697;BME280;68167;59.120;37.898;2024-02-26T00:42:30;100734.41;;;0.56;86.90
71697;BME280;68167;59.120;37.898;2024-02-26T00:44:56;100629.84;;;-0.01;86.96
71697;BME280;68167;59.120;37.898;2024-02-26T00:47:22;100705.13;;;0.44;86.76
71697;BME280;68167;59.120;37.898;2024-02-26T00:49:49;100646.16;;;0.09;86.67
71697;BME280;68167;59.120;37.898;2024-02-26T00:52:15;100707.25;;;0.49;86.90
71697;BME280;68167;59.120;37.898;2024-02-26T00:54:41;100696.63;;;0.42;86.81
71697;BME280;68167;59.120;37.898;2024-02-26T00:57:07;100707.91;;;0.51;86.69
71697;BME280;68167;59.120;37.898;2024-02-26T00:59:34;100660.84;;;0.18;86.63
71697;BME280;68167;59.120;37.898;2024-02-26T01:02:00;100683.75;;;0.24;86.83
71697;BME280;68167;59.120;37.898;2024-02-26T01:04:28;100629.34;;;-0.05;87.06
71697;BME280;68167;59.120;37.898;2024-02-26T01:06:54;100712.00;;;0.45;86.89
71697;BME280;68167;59.120;37.898;2024-02-26T01:09:20;100682.41;;;0.28;87.04
71697;BME280;68167;59.120;37.898;2024-02-26T01:11:46;100627.06;;;-0.08;86.72
71697;BME280;68167;59.120;37.898;2024-02-26T01:14:13;100681.63;;;0.20;86.42
71697;BME280;68167;59.120;37.898;2024-02-26T01:16:39;100691.09;;;0.21;86.75
71697;BME280;68167;59.120;37.898;2024-02-26T01:19:06;100580.19;;;-0.50;86.79
71697;BME280;68167;59.120;37.898;2024-02-26T01:21:33;100672.63;;;0.14;87.20
71697;BME280;68167;59.120;37.898;2024-02-26T01:23:59;100643.59;;;-0.07;86.92
71697;BME280;68167;59.120;37.898;2024-02-26T01:26:25;100702.69;;;0.35;87.24
71697;BME280;68167;59.120;37.898;2024-02-26T01:28:51;100662.81;;;0.16;86.82
71697;BME280;68167;59.120;37.898;2024-02-26T01:31:17;100661.66;;;0.19;86.84
71697;BME280;68167;59.120;37.898;2024-02-26T01:33:44;100652.03;;;0.11;86.92
71697;BME280;68167;59.120;37.898;2024-02-26T01:36:10;100590.97;;;-0.28;86.02
71697;BME280;68167;59.120;37.898;2024-02-26T01:38:36;100717.25;;;0.37;86.83
71697;BME280;68167;59.120;37.898;2024-02-26T01:41:03;100715.63;;;0.28;86.56
71697;BME280;68167;59.120;37.898;2024-02-26T01:43:29;100710.56;;;0.35;86.50
71697;BME280;68167;59.120;37.898;2024-02-26T01:45:55;100699.28;;;0.26;86.61
71697;BME280;68167;59.120;37.898;2024-02-26T01:48:22;100661.84;;;0.09;86.10
71697;BME280;68167;59.120;37.898;2024-02-26T01:50:48;100680.16;;;0.17;86.31
71697;BME280;68167;59.120;37.898;2024-02-26T01:53:15;100622.19;;;-0.19;86.61
71697;BME280;68167;59.120;37.898;2024-02-26T01:55:42;100638.69;;;-0.10;86.49
71697;BME280;68167;59.120;37.898;2024-02-26T01:58:09;100715.13;;;0.32;86.66
71697;BME280;68167;59.120;37.898;2024-02-26T02:00:36;100632.63;;;-0.11;86.08
71697;BME280;68167;59.120;37.898;2024-02-26T02:03:03;100672.16;;;0.11;86.38
71697;BME280;68167;59.120;37.898;2024-02-26T02:05:30;100692.75;;;0.22;86.35
71697;BME280;68167;59.120;37.898;2024-02-26T02:07:57;100669.88;;;0.08;86.49
71697;BME280;68167;59.120;37.898;2024-02-26T02:10:25;100691.59;;;0.16;86.68
71697;BME280;68167;59.120;37.898;2024-02-26T02:12:53;100674.13;;;0.09;86.27
71697;BME280;68167;59.120;37.898;2024-02-26T02:15:19;100665.44;;;0.08;86.06
71697;BME280;68167;59.120;37.898;2024-02-26T02:17:46;100670.19;;;0.13;86.40
71697;BME280;68167;59.120;37.898;2024-02-26T02:20:16;100653.56;;;-0.03;85.83
71697;BME280;68167;59.120;37.898;2024-02-26T02:22:47;100669.53;;;0.11;86.57
71697;BME280;68167;59.120;37.898;2024-02-26T02:25:13;100683.44;;;0.11;86.45
71697;BME280;68167;59.120;37.898;2024-02-26T02:27:41;100650.94;;;-0.03;85.97
71697;BME280;68167;59.120;37.898;2024-02-26T02:30:09;100616.47;;;-0.30;85.88
71697;BME280;68167;59.120;37.898;2024-02-26T02:32:40;100615.81;;;-0.24;85.92
71697;BME280;68167;59.120;37.898;2024-02-26T02:35:07;100670.34;;;0.11;85.92
71697;BME280;68167;59.120;37.898;2024-02-26T02:37:34;100672.31;;;0.09;86.35
71697;BME280;68167;59.120;37.898;2024-02-26T02:40:00;100665.44;;;0.08;86.47
71697;BME280;68167;59.120;37.898;2024-02-26T02:42:26;100687.19;;;0.09;86.18
71697;BME280;68167;59.120;37.898;2024-02-26T02:44:53;100595.06;;;-0.42;86.16
71697;BME280;68167;59.120;37.898;2024-02-26T02:47:19;100659.72;;;0.05;86.19
71697;BME280;68167;59.120;37.898;2024-02-26T02:49:45;100667.25;;;0.08;85.85
71697;BME280;68167;59.120;37.898;2024-02-26T02:52:11;100624.31;;;-0.22;85.72
71697;BME280;68167;59.120;37.898;2024-02-26T02:54:38;100676.41;;;0.12;86.19
71697;BME280;68167;59.120;37.898;2024-02-26T02:57:06;100673.13;;;0.10;86.45
71697;BME280;68167;59.120;37.898;2024-02-26T02:59:32;100599.63;;;-0.36;86.27
71697;BME280;68167;59.120;37.898;2024-02-26T03:01:58;100654.53;;;-0.04;86.14
71697;BME280;68167;59.120;37.898;2024-02-26T03:04:25;100657.63;;;0.00;86.24
71697;BME280;68167;59.120;37.898;2024-02-26T03:06:51;100601.78;;;-0.40;85.82
71697;BME280;68167;59.120;37.898;2024-02-26T03:09:17;100660.88;;;0.02;86.41
71697;BME280;68167;59.120;37.898;2024-02-26T03:11:43;100652.22;;;0.02;86.45
71697;BME280;68167;59.120;37.898;2024-02-26T03:14:10;100678.34;;;0.18;85.97
71697;BME280;68167;59.120;37.898;2024-02-26T03:16:36;100588.38;;;-0.37;86.20
71697;BME280;68167;59.120;37.898;2024-02-26T03:19:02;100579.53;;;-0.36;86.00
71697;BME280;68167;59.120;37.898;2024-02-26T03:21:29;100640.31;;;-0.09;86.17
71697;BME280;68167;59.120;37.898;2024-02-26T03:23:55;100578.56;;;-0.43;85.81
71697;BME280;68167;59.120;37.898;2024-02-26T03:26:23;100513.59;;;-0.86;86.04
71697;BME280;68167;59.120;37.898;2024-02-26T03:28:49;100656.00;;;-0.01;86.15
71697;BME280;68167;59.120;37.898;2024-02-26T03:31:15;100579.06;;;-0.47;85.58
71697;BME280;68167;59.120;37.898;2024-02-26T03:33:42;100567.28;;;-0.51;86.16
71697;BME280;68167;59.120;37.898;2024-02-26T03:36:08;100616.47;;;-0.30;85.63
71697;BME280;68167;59.120;37.898;2024-02-26T03:38:34;100618.09;;;-0.29;86.17
71697;BME280;68167;59.120;37.898;2024-02-26T03:41:00;100662.88;;;0.00;86.03
71697;BME280;68167;59.120;37.898;2024-02-26T03:43:27;100658.13;;;-0.05;86.21
71697;BME280;68167;59.120;37.898;2024-02-26T03:45:53;100569.91;;;-0.51;86.08
71697;BME280;68167;59.120;37.898;2024-02-26T03:48:19;100540.19;;;-0.58;86.38
71697;BME280;68167;59.120;37.898;2024-02-26T03:50:46;100667.06;;;0.09;85.65
71697;BME280;68167;59.120;37.898;2024-02-26T03:53:12;100589.84;;;-0.42;85.82
71697;BME280;68167;59.120;37.898;2024-02-26T03:55:38;100585.44;;;-0.42;85.66
71697;BME280;68167;59.120;37.898;2024-02-26T03:58:05;100583.78;;;-0.43;85.94
71697;BME280;68167;59.120;37.898;2024-02-26T04:00:31;100659.25;;;0.01;86.11
71697;BME280;68167;59.120;37.898;2024-02-26T04:02:57;100628.53;;;-0.05;85.79
71697;BME280;68167;59.120;37.898;2024-02-26T04:05:23;100557.47;;;-0.41;85.69
71697;BME280;68167;59.120;37.898;2024-02-26T04:07:50;100589.81;;;-0.26;85.33
71697;BME280;68167;59.120;37.898;2024-02-26T04:10:16;100606.31;;;-0.17;85.37
71697;BME280;68167;59.120;37.898;2024-02-26T04:12:44;100654.97;;;0.08;85.20
71697;BME280;68167;59.120;37.898;2024-02-26T04:15:12;100652.69;;;0.05;86.03
71697;BME280;68167;59.120;37.898;2024-02-26T04:17:38;100575.94;;;-0.43;85.81
71697;BME280;68167;59.120;37.898;2024-02-26T04:20:05;100516.03;;;-0.77;85.66
71697;BME280;68167;59.120;37.898;2024-02-26T04:22:32;100624.16;;;-0.21;85.62
71697;BME280;68167;59.120;37.898;2024-02-26T04:24:59;100646.84;;;-0.05;85.79
71697;BME280;68167;59.120;37.898;2024-02-26T04:27:25;100655.34;;;-0.03;85.77
71697;BME280;68167;59.120;37.898;2024-02-26T04:29:51;100602.91;;;-0.34;85.58
71697;BME280;68167;59.120;37.898;2024-02-26T04:32:18;100654.50;;;0.05;85.95
71697;BME280;68167;59.120;37.898;2024-02-26T04:34:44;100606.00;;;-0.30;85.96
71697;BME280;68167;59.120;37.898;2024-02-26T04:37:10;100630.19;;;-0.12;86.07
71697;BME280;68167;59.120;37.898;2024-02-26T04:39:37;100603.06;;;-0.27;86.06
71697;BME280;68167;59.120;37.898;2024-02-26T04:42:03;100632.47;;;-0.09;85.98
71697;BME280;68167;59.120;37.898;2024-02-26T04:44:30;100654.16;;;0.08;85.87
71697;BME280;68167;59.120;37.898;2024-02-26T04:46:56;100658.06;;;0.12;85.88
71697;BME280;68167;59.120;37.898;2024-02-26T04:49:22;100622.66;;;-0.07;85.50
71697;BME280;68167;59.120;37.898;2024-02-26T04:51:49;100637.81;;;0.06;85.86
71697;BME280;68167;59.120;37.898;2024-02-26T04:54:15;100625.75;;;-0.04;86.04
71697;BME280;68167;59.120;37.898;2024-02-26T04:56:42;100619.53;;;-0.03;85.97
71697;BME280;68167;59.120;37.898;2024-02-26T04:59:08;100630.59;;;0.08;85.49
71697;BME280;68167;59.120;37.898;2024-02-26T05:01:34;100648.25;;;0.14;85.86
71697;BME280;68167;59.120;37.898;2024-02-26T05:04:02;100536.72;;;-0.43;85.94
71697;BME280;68167;59.120;37.898;2024-02-26T05:06:36;100617.69;;;0.06;85.86
71697;BME280;68167;59.120;37.898;2024-02-26T05:09:03;100569.06;;;-0.36;86.66
71697;BME280;68167;59.120;37.898;2024-02-26T05:11:29;100630.59;;;0.08;86.05
71697;BME280;68167;59.120;37.898;2024-02-26T05:13:56;100643.16;;;0.28;86.53
71697;BME280;68167;59.120;37.898;2024-02-26T05:16:22;100558.59;;;-0.19;86.11
71697;BME280;68167;59.120;37.898;2024-02-26T05:18:50;100563.47;;;-0.16;86.40
71697;BME280;68167;59.120;37.898;2024-02-26T05:21:16;100625.16;;;0.25;85.98
71697;BME280;68167;59.120;37.898;2024-02-26T05:23:43;100637.72;;;0.38;85.88
71697;BME280;68167;59.120;37.898;2024-02-26T05:26:09;100627.28;;;0.30;86.12
71697;BME280;68167;59.120;37.898;2024-02-26T05:28:36;100579.91;;;0.00;86.06
71697;BME280;68167;59.120;37.898;2024-02-26T05:31:05;100625.31;;;0.32;85.90
71697;BME280;68167;59.120;37.898;2024-02-26T05:33:31;100654.38;;;0.45;86.05
71697;BME280;68167;59.120;37.898;2024-02-26T05:35:58;100537.00;;;-0.21;85.84
71697;BME280;68167;59.120;37.898;2024-02-26T05:38:29;100626.59;;;0.36;86.28
71697;BME280;68167;59.120;37.898;2024-02-26T05:40:58;100642.25;;;0.52;85.88
71697;BME280;68167;59.120;37.898;2024-02-26T05:43:25;100617.91;;;0.44;86.16
71697;BME280;68167;59.120;37.898;2024-02-26T05:45:52;100557.03;;;0.03;85.63
71697;BME280;68167;59.120;37.898;2024-02-26T05:48:19;100639.59;;;0.60;86.21
71697;BME280;68167;59.120;37.898;2024-02-26T05:50:46;100629.81;;;0.54;86.12
71697;BME280;68167;59.120;37.898;2024-02-26T05:53:12;100622.47;;;0.50;85.89
71697;BME280;68167;59.120;37.898;2024-02-26T05:55:39;100594.06;;;0.30;85.82
71697;BME280;68167;59.120;37.898;2024-02-26T05:58:05;100593.72;;;0.33;85.84
71697;BME280;68167;59.120;37.898;2024-02-26T06:00:31;100640.34;;;0.69;86.30
71697;BME280;68167;59.120;37.898;2024-02-26T06:02:58;100554.50;;;0.17;85.79
71697;BME280;68167;59.120;37.898;2024-02-26T06:05:24;100642.97;;;0.69;85.92
71697;BME280;68167;59.120;37.898;2024-02-26T06:07:50;100599.06;;;0.48;85.84
71697;BME280;68167;59.120;37.898;2024-02-26T06:10:16;100569.19;;;0.26;85.75
71697;BME280;68167;59.120;37.898;2024-02-26T06:12:44;100615.25;;;0.52;85.55
71697;BME280;68167;59.120;37.898;2024-02-26T06:15:10;100635.00;;;0.62;85.62
71697;BME280;68167;59.120;37.898;2024-02-26T06:17:37;100606.91;;;0.48;85.69
71697;BME280;68167;59.120;37.898;2024-02-26T06:20:05;100524.47;;;0.05;86.01
71697;BME280;68167;59.120;37.898;2024-02-26T06:22:32;100633.13;;;0.71;86.25
71697;BME280;68167;59.120;37.898;2024-02-26T06:24:58;100631.50;;;0.70;85.86
71697;BME280;68167;59.120;37.898;2024-02-26T06:27:25;100628.94;;;0.62;85.64
71697;BME280;68167;59.120;37.898;2024-02-26T06:29:51;100508.69;;;-0.10;85.36
71697;BME280;68167;59.120;37.898;2024-02-26T06:32:17;100554.03;;;0.14;85.56
71697;BME280;68167;59.120;37.898;2024-02-26T06:34:43;100513.28;;;-0.12;85.38
71697;BME280;68167;59.120;37.898;2024-02-26T06:37:10;100612.50;;;0.45;86.10
71697;BME280;68167;59.120;37.898;2024-02-26T06:39:36;100569.06;;;0.20;85.38
71697;BME280;68167;59.120;37.898;2024-02-26T06:42:02;100613.28;;;0.54;86.32
71697;BME280;68167;59.120;37.898;2024-02-26T06:44:28;100586.81;;;0.41;86.21
71697;BME280;68167;59.120;37.898;2024-02-26T06:46:58;100599.34;;;0.53;85.71
71697;BME280;68167;59.120;37.898;2024-02-26T06:49:26;100603.13;;;0.51;85.38
71697;BME280;68167;59.120;37.898;2024-02-26T06:51:52;100596.59;;;0.47;85.79
71697;BME280;68167;59.120;37.898;2024-02-26T06:54:19;100611.94;;;0.58;85.25
71697;BME280;68167;59.120;37.898;2024-02-26T06:56:46;100478.66;;;-0.30;85.52
71697;BME280;68167;59.120;37.898;2024-02-26T06:59:13;100638.44;;;0.63;85.92
71697;BME280;68167;59.120;37.898;2024-02-26T07:01:42;100490.94;;;-0.30;85.75
71697;BME280;68167;59.120;37.898;2024-02-26T07:04:09;100516.94;;;0.02;85.49
71697;BME280;68167;59.120;37.898;2024-02-26T07:06:37;100616.03;;;0.60;85.61
71697;BME280;68167;59.120;37.898;2024-02-26T07:09:03;100607.06;;;0.55;85.58
71697;BME280;68167;59.120;37.898;2024-02-26T07:11:29;100612.16;;;0.48;85.67
71697;BME280;68167;59.120;37.898;2024-02-26T07:13:56;100619.97;;;0.56;85.70
71697;BME280;68167;59.120;37.898;2024-02-26T07:16:22;100374.97;;;-0.93;85.98
71697;BME280;68167;59.120;37.898;2024-02-26T07:18:48;100542.59;;;0.15;85.70
71697;BME280;68167;59.120;37.898;2024-02-26T07:21:14;100554.03;;;0.14;85.62
71697;BME280;68167;59.120;37.898;2024-02-26T07:23:41;100538.38;;;0.06;85.60
71697;BME280;68167;59.120;37.898;2024-02-26T07:26:07;100607.72;;;0.49;85.36
71697;BME280;68167;59.120;37.898;2024-02-26T07:28:34;100607.09;;;0.47;85.50
71697;BME280;68167;59.120;37.898;2024-02-26T07:31:00;100597.13;;;0.42;84.99
71697;BME280;68167;59.120;37.898;2024-02-26T07:33:27;100613.78;;;0.49;85.51
71697;BME280;68167;59.120;37.898;2024-02-26T07:35:53;100524.97;;;0.00;85.16
71697;BME280;68167;59.120;37.898;2024-02-26T07:38:19;100599.91;;;0.41;85.21
71697;BME280;68167;59.120;37.898;2024-02-26T07:40:46;100571.50;;;0.21;85.16
71697;BME280;68167;59.120;37.898;2024-02-26T07:43:12;100588.31;;;0.35;85.80
71697;BME280;68167;59.120;37.898;2024-02-26T07:45:38;100586.16;;;0.39;85.68
71697;BME280;68167;59.120;37.898;2024-02-26T07:48:05;100607.38;;;0.52;85.47
71697;BME280;68167;59.120;37.898;2024-02-26T07:50:31;100603.31;;;0.49;85.40
71697;BME280;68167;59.120;37.898;2024-02-26T07:52:58;100623.28;;;0.50;85.86
71697;BME280;68167;59.120;37.898;2024-02-26T07:55:24;100503.66;;;-0.19;85.52
71697;BME280;68167;59.120;37.898;2024-02-26T07:57:51;100608.13;;;0.29;85.06
71697;BME280;68167;59.120;37.898;2024-02-26T08:00:17;100567.78;;;0.16;85.12
71697;BME280;68167;59.120;37.898;2024-02-26T08:02:43;100601.88;;;0.39;85.43
71697;BME280;68167;59.120;37.898;2024-02-26T08:05:10;100604.84;;;0.36;85.65
71697;BME280;68167;59.120;37.898;2024-02-26T08:07:36;100536.78;;;-0.04;85.17
71697;BME280;68167;59.120;37.898;2024-02-26T08:10:02;100588.03;;;0.22;85.33
71697;BME280;68167;59.120;37.898;2024-02-26T08:12:30;100520.81;;;-0.17;85.39
71697;BME280;68167;59.120;37.898;2024-02-26T08:14:56;100505.78;;;-0.23;85.01
71697;BME280;68167;59.120;37.898;2024-02-26T08:17:24;100530.91;;;-0.06;85.62
71697;BME280;68167;59.120;37.898;2024-02-26T08:19:50;100560.72;;;0.16;85.27
71697;BME280;68167;59.120;37.898;2024-02-26T08:22:17;100592.63;;;0.20;85.07
71697;BME280;68167;59.120;37.898;2024-02-26T08:24:43;100570.56;;;0.14;85.65
71697;BME280;68167;59.120;37.898;2024-02-26T08:27:10;100582.31;;;0.18;85.53
71697;BME280;68167;59.120;37.898;2024-02-26T08:29:36;100577.91;;;0.19;85.91
71697;BME280;68167;59.120;37.898;2024-02-26T08:32:03;100570.53;;;0.22;85.90
71697;BME280;68167;59.120;37.898;2024-02-26T08:34:30;100571.16;;;0.24;85.62
71697;BME280;68167;59.120;37.898;2024-02-26T08:36:56;100587.66;;;0.33;85.44
71697;BME280;68167;59.120;37.898;2024-02-26T08:39:22;100544.06;;;0.09;85.46
71697;BME280;68167;59.120;37.898;2024-02-26T08:41:48;100575.41;;;0.25;85.51
71697;BME280;68167;59.120;37.898;2024-02-26T08:44:15;100596.47;;;0.40;85.86
71697;BME280;68167;59.120;37.898;2024-02-26T08:46:42;100580.28;;;0.37;85.68
71697;BME280;68167;59.120;37.898;2024-02-26T08:49:08;100574.75;;;0.31;85.22
71697;BME280;68167;59.120;37.898;2024-02-26T08:51:34;100585.53;;;0.37;85.21
71697;BME280;68167;59.120;37.898;2024-02-26T08:54:01;100528.78;;;-0.10;84.63
71697;BME280;68167;59.120;37.898;2024-02-26T08:56:27;100503.53;;;-0.34;84.44
71697;BME280;68167;59.120;37.898;2024-02-26T08:58:53;100577.94;;;0.11;84.92
71697;BME280;68167;59.120;37.898;2024-02-26T09:01:22;100565.81;;;0.10;85.02
71697;BME280;68167;59.120;37.898;2024-02-26T09:03:49;100502.84;;;-0.28;85.68
71697;BME280;68167;59.120;37.898;2024-02-26T09:06:16;100588.69;;;0.24;85.20
71697;BME280;68167;59.120;37.898;2024-02-26T09:08:42;100560.09;;;0.14;85.60
71697;BME280;68167;59.120;37.898;2024-02-26T09:11:08;100589.50;;;0.24;85.06
71697;BME280;68167;59.120;37.898;2024-02-26T09:13:36;100560.56;;;0.18;85.07
71697;BME280;68167;59.120;37.898;2024-02-26T09:16:02;100573.78;;;0.24;85.22
71697;BME280;68167;59.120;37.898;2024-02-26T09:18:29;100489.47;;;-0.33;84.60
71697;BME280;68167;59.120;37.898;2024-02-26T09:20:55;100549.66;;;0.06;85.12
71697;BME280;68167;59.120;37.898;2024-02-26T09:23:21;100523.41;;;-0.09;85.12
71697;BME280;68167;59.120;37.898;2024-02-26T09:25:48;100564.53;;;0.06;84.97
71697;BME280;68167;59.120;37.898;2024-02-26T09:28:14;100509.22;;;-0.22;84.67
71697;BME280;68167;59.120;37.898;2024-02-26T09:30:46;100555.69;;;0.07;85.14
71697;BME280;68167;59.120;37.898;2024-02-26T09:33:13;100557.50;;;0.06;84.83
71697;BME280;68167;59.120;37.898;2024-02-26T09:35:40;100479.69;;;-0.39;84.99
71697;BME280;68167;59.120;37.898;2024-02-26T09:38:07;100499.06;;;-0.17;85.09
71697;BME280;68167;59.120;37.898;2024-02-26T09:40:33;100549.63;;;0.14;84.93
71697;BME280;68167;59.120;37.898;2024-02-26T09:43:00;100571.66;;;0.28;84.94
71697;BME280;68167;59.120;37.898;2024-02-26T09:45:30;100466.06;;;-0.26;84.82
71697;BME280;68167;59.120;37.898;2024-02-26T09:47:58;100486.97;;;-0.18;85.14
71697;BME280;68167;59.120;37.898;2024-02-26T09:50:25;100531.31;;;0.06;84.56
71697;BME280;68167;59.120;37.898;2024-02-26T09:52:51;100543.09;;;0.10;85.00
71697;BME280;68167;59.120;37.898;2024-02-26T09:55:19;100475.84;;;-0.20;85.18
71697;BME280;68167;59.120;37.898;2024-02-26T09:57:46;100417.97;;;-0.56;84.69
71697;BME280;68167;59.120;37.898;2024-02-26T10:00:17;100560.53;;;0.26;84.80
71697;BME280;68167;59.120;37.898;2024-02-26T10:02:45;100552.50;;;0.27;84.76
71697;BME280;68167;59.120;37.898;2024-02-26T10:05:17;100518.41;;;0.05;84.66
71697;BME280;68167;59.120;37.898;2024-02-26T10:07:45;100414.53;;;-0.57;83.89
71697;BME280;68167;59.120;37.898;2024-02-26T10:10:14;100526.91;;;0.07;84.70
71697;BME280;68167;59.120;37.898;2024-02-26T10:12:40;100534.56;;;0.16;84.69
71697;BME280;68167;59.120;37.898;2024-02-26T10:15:07;100529.66;;;0.13;84.78
71697;BME280;68167;59.120;37.898;2024-02-26T10:17:34;100536.66;;;0.21;84.43
71697;BME280;68167;59.120;37.898;2024-02-26T10:20:11;100543.22;;;0.17;84.76
71697;BME280;68167;59.120;37.898;2024-02-26T10:22:38;100542.22;;;0.26;84.95
71697;BME280;68167;59.120;37.898;2024-02-26T10:25:04;100519.66;;;0.17;85.57
71697;BME280;68167;59.120;37.898;2024-02-26T10:27:35;100517.19;;;0.23;85.62
71697;BME280;68167;59.120;37.898;2024-02-26T10:30:16;100542.66;;;0.38;85.02
71697;BME280;68167;59.120;37.898;2024-02-26T10:32:44;100449.53;;;-0.19;84.72
71697;BME280;68167;59.120;37.898;2024-02-26T10:35:11;100323.72;;;-1.02;84.58
71697;BME280;68167;59.120;37.898;2024-02-26T10:37:37;100521.44;;;0.24;84.87
71697;BME280;68167;59.120;37.898;2024-02-26T10:40:03;100391.44;;;-0.45;85.41
71697;BME280;68167;59.120;37.898;2024-02-26T10:42:30;100515.41;;;0.16;84.85
71697;BME280;68167;59.120;37.898;2024-02-26T10:44:58;100510.84;;;0.18;85.17
71697;BME280;68167;59.120;37.898;2024-02-26T10:47:24;100526.50;;;0.26;85.29
71697;BME280;68167;59.120;37.898;2024-02-26T10:49:50;100534.31;;;0.34;84.93
71697;BME280;68167;59.120;37.898;2024-02-26T10:52:19;100460.91;;;-0.04;84.83
71697;BME280;68167;59.120;37.898;2024-02-26T10:54:47;100518.25;;;0.37;85.20
71697;BME280;68167;59.120;37.898;2024-02-26T10:57:15;100445.69;;;0.00;85.06
71697;BME280;68167;59.120;37.898;2024-02-26T10:59:44;100534.41;;;0.49;85.30
71697;BME280;68167;59.120;37.898;2024-02-26T11:02:11;100531.47;;;0.44;84.80
71697;BME280;68167;59.120;37.898;2024-02-26T11:04:40;100465.25;;;0.04;84.54
71697;BME280;68167;59.120;37.898;2024-02-26T11:07:10;100538.88;;;0.40;84.92
71697;BME280;68167;59.120;37.898;2024-02-26T11:09:37;100528.91;;;0.36;85.05
71697;BME280;68167;59.120;37.898;2024-02-26T11:12:10;100471.66;;;0.02;84.61
71697;BME280;68167;59.120;37.898;2024-02-26T11:14:40;100534.91;;;0.44;85.12
71697;BME280;68167;59.120;37.898;2024-02-26T11:17:09;100440.97;;;-0.05;85.04
71697;BME280;68167;59.120;37.898;2024-02-26T11:19:38;100519.84;;;0.46;84.79
71697;BME280;68167;59.120;37.898;2024-02-26T11:22:04;100465.91;;;0.06;85.13
71697;BME280;68167;59.120;37.898;2024-02-26T11:24:30;100440.16;;;-0.05;85.20
71697;BME280;68167;59.120;37.898;2024-02-26T11:27:02;100529.16;;;0.49;85.53
71697;BME280;68167;59.120;37.898;2024-02-26T11:29:35;100493.25;;;0.35;85.16
71697;BME280;68167;59.120;37.898;2024-02-26T11:32:03;100536.38;;;0.70;85.43
71697;BME280;68167;59.120;37.898;2024-02-26T11:34:31;100527.44;;;0.64;84.89
71697;BME280;68167;59.120;37.898;2024-02-26T11:36:57;100538.19;;;0.69;85.63
71697;BME280;68167;59.120;37.898;2024-02-26T11:39:34;100520.84;;;0.68;84.81
71697;BME280;68167;59.120;37.898;2024-02-26T11:42:08;100526.78;;;0.62;84.94
71697;BME280;68167;59.120;37.898;2024-02-26T11:44:35;100491.84;;;0.47;85.39
71697;BME280;68167;59.120;37.898;2024-02-26T11:47:18;100521.78;;;0.75;85.19
71697;BME280;68167;59.120;37.898;2024-02-26T11:49:44;100478.75;;;0.47;84.92
71697;BME280;68167;59.120;37.898;2024-02-26T11:52:12;100526.72;;;0.70;85.26
71697;BME280;68167;59.120;37.898;2024-02-26T11:57:39;100515.84;;;0.81;85.50
71697;BME280;68167;59.120;37.898;2024-02-26T12:02:50;100498.81;;;0.62;84.42
71697;BME280;68167;59.120;37.898;2024-02-26T12:05:24;100504.69;;;0.64;85.11
71697;BME280;68167;59.120;37.898;2024-02-26T12:10:27;100384.78;;;-0.17;84.77
71697;BME280;68167;59.120;37.898;2024-02-26T12:12:59;100523.00;;;0.64;84.59
71697;BME280;68167;59.120;37.898;2024-02-26T12:15:42;100504.91;;;0.55;84.70
71697;BME280;68167;59.120;37.898;2024-02-26T12:18:12;100443.47;;;0.12;84.79
71697;BME280;68167;59.120;37.898;2024-02-26T12:20:41;100514.75;;;0.53;85.05
71697;BME280;68167;59.120;37.898;2024-02-26T12:23:15;100499.06;;;0.45;84.34
71697;BME280;68167;59.120;37.898;2024-02-26T12:25:46;100424.28;;;-0.04;84.84
71697;BME280;68167;59.120;37.898;2024-02-26T12:28:14;100483.66;;;0.19;84.41
71697;BME280;68167;59.120;37.898;2024-02-26T12:30:41;100507.97;;;0.36;84.33
71697;BME280;68167;59.120;37.898;2024-02-26T12:33:07;100417.66;;;-0.22;85.35
71697;BME280;68167;59.120;37.898;2024-02-26T12:35:35;100499.84;;;0.22;85.17
71697;BME280;68167;59.120;37.898;2024-02-26T12:38:03;100449.19;;;-0.16;84.70
71697;BME280;68167;59.120;37.898;2024-02-26T12:40:31;100520.44;;;0.25;84.62
71697;BME280;68167;59.120;37.898;2024-02-26T12:42:57;100504.78;;;0.17;84.60
71697;BME280;68167;59.120;37.898;2024-02-26T12:45:25;100490.75;;;0.10;84.57
71697;BME280;68167;59.120;37.898;2024-02-26T12:47:52;100341.66;;;-0.91;84.87
71697;BME280;68167;59.120;37.898;2024-02-26T12:50:19;100451.03;;;-0.24;84.44
71697;BME280;68167;59.120;37.898;2024-02-26T12:52:46;100501.25;;;0.02;84.44
71697;BME280;68167;59.120;37.898;2024-02-26T12:55:18;100475.00;;;-0.13;84.47